createdAt,value
2016-12-03T00:00:31.916Z,1003.73
2016-12-03T00:01:41.954Z,1003.72
2016-12-03T00:02:52.000Z,1003.71
2016-12-03T00:04:02.335Z,1003.72
2016-12-03T00:05:12.654Z,1003.7
2016-12-03T00:06:22.986Z,1003.72
2016-12-03T00:07:33.022Z,1003.7
2016-12-03T00:08:43.024Z,1003.74
2016-12-03T00:09:53.048Z,1003.74
2016-12-03T00:11:03.056Z,1003.73
2016-12-03T00:12:13.077Z,1003.73
2016-12-03T00:13:23.099Z,1003.79
2016-12-03T00:14:33.415Z,1003.71
2016-12-03T00:15:43.432Z,1003.78
2016-12-03T00:16:53.441Z,1003.75
2016-12-03T00:18:03.461Z,1003.71
2016-12-03T00:19:13.796Z,1003.77
2016-12-03T00:20:23.823Z,1003.74
2016-12-03T00:21:34.145Z,1003.79
2016-12-03T00:22:44.182Z,1003.79
2016-12-03T00:23:53.593Z,1003.76
2016-12-03T00:25:03.611Z,1003.82
2016-12-03T00:26:13.862Z,1003.79
2016-12-03T00:27:23.601Z,1003.79
2016-12-03T00:28:33.630Z,1003.74
2016-12-03T00:29:43.655Z,1003.81
2016-12-03T00:30:54.001Z,1003.8
2016-12-03T00:32:04.052Z,1003.79
2016-12-03T00:33:14.377Z,1003.85
2016-12-03T00:34:24.387Z,1003.88
2016-12-03T00:35:34.101Z,1003.84
2016-12-03T00:36:43.786Z,1003.9
2016-12-03T00:37:53.809Z,1003.9
2016-12-03T00:39:03.821Z,1003.89
2016-12-03T00:40:13.839Z,1003.89
2016-12-03T00:41:24.174Z,1003.88
2016-12-03T00:42:33.883Z,1003.88
2016-12-03T00:43:43.888Z,1003.89
2016-12-03T00:44:54.230Z,1003.9
2016-12-03T00:46:04.545Z,1003.87
2016-12-03T00:47:14.561Z,1003.91
2016-12-03T00:48:24.879Z,1003.9
2016-12-03T00:49:35.195Z,1003.96
2016-12-03T00:50:44.904Z,1003.91
2016-12-03T00:51:54.632Z,1003.96
2016-12-03T00:53:04.664Z,1003.98
2016-12-03T00:54:14.670Z,1003.95
2016-12-03T00:55:25.022Z,1003.92
2016-12-03T00:56:35.344Z,1003.92
2016-12-03T00:57:45.361Z,1003.95
2016-12-03T00:58:55.718Z,1003.91
2016-12-03T01:00:05.734Z,1003.9
2016-12-03T01:01:16.052Z,1003.9
2016-12-03T01:02:26.377Z,1003.99
2016-12-03T01:03:36.388Z,1003.98
2016-12-03T01:04:46.707Z,1003.98
2016-12-03T01:05:57.039Z,1004
2016-12-03T01:07:07.092Z,1003.99
2016-12-03T01:08:17.426Z,1004.01
2016-12-03T01:09:27.436Z,1004.06
2016-12-03T01:10:37.459Z,1004.02
2016-12-03T01:11:47.788Z,1004.07
2016-12-03T01:12:58.117Z,1004.08
2016-12-03T01:14:08.449Z,1004.1
2016-12-03T01:15:18.476Z,1004.06
2016-12-03T01:16:28.497Z,1004.09
2016-12-03T01:17:38.230Z,1004.08
2016-12-03T01:18:48.551Z,1004.09
2016-12-03T01:19:58.252Z,1004.13
2016-12-03T01:21:08.604Z,1004.13
2016-12-03T01:22:18.627Z,1004.16
2016-12-03T01:23:28.983Z,1004.16
2016-12-03T01:24:39.318Z,1004.16
2016-12-03T01:25:49.641Z,1004.18
2016-12-03T01:26:59.960Z,1004.15
2016-12-03T01:28:10.290Z,1004.18
2016-12-03T01:29:20.326Z,1004.17
2016-12-03T01:30:30.660Z,1004.1
2016-12-03T01:31:40.684Z,1004.16
2016-12-03T01:32:50.391Z,1004.2
2016-12-03T01:34:00.713Z,1004.13
2016-12-03T01:35:10.709Z,1004.17
2016-12-03T01:36:21.067Z,1004.13
2016-12-03T01:37:31.387Z,1004.18
2016-12-03T01:38:41.740Z,1004.19
2016-12-03T01:39:51.441Z,1004.13
2016-12-03T01:41:01.795Z,1004.17
2016-12-03T01:42:12.108Z,1004.14
2016-12-03T01:43:22.428Z,1004.21
2016-12-03T01:44:32.152Z,1004.16
2016-12-03T01:45:42.474Z,1004.2
2016-12-03T01:46:52.802Z,1004.18
2016-12-03T01:48:02.839Z,1004.26
2016-12-03T01:49:13.162Z,1004.27
2016-12-03T01:50:23.162Z,1004.21
2016-12-03T01:51:33.175Z,1004.23
2016-12-03T01:52:43.495Z,1004.26
2016-12-03T01:53:53.833Z,1004.29
2016-12-03T01:55:04.181Z,1004.28
2016-12-03T01:56:14.209Z,1004.32
2016-12-03T01:57:24.527Z,1004.35
2016-12-03T01:58:34.538Z,1004.33
2016-12-03T01:59:44.876Z,1004.35
2016-12-03T02:00:55.199Z,1004.36
2016-12-03T02:02:05.234Z,1004.38
2016-12-03T02:03:15.565Z,1004.39
2016-12-03T02:04:25.583Z,1004.35
2016-12-03T02:05:35.900Z,1004.4
2016-12-03T02:06:46.221Z,1004.36
2016-12-03T02:07:56.542Z,1004.41
2016-12-03T02:09:06.250Z,1004.41
2016-12-03T02:10:15.962Z,1004.41
2016-12-03T02:11:26.344Z,1004.39
2016-12-03T02:12:36.665Z,1004.38
2016-12-03T02:13:46.375Z,1004.41
2016-12-03T02:14:56.387Z,1004.38
2016-12-03T02:16:06.092Z,1004.38
2016-12-03T02:17:16.110Z,1004.38
2016-12-03T02:18:26.425Z,1004.39
2016-12-03T02:19:36.118Z,1004.33
2016-12-03T02:20:46.456Z,1004.37
2016-12-03T02:21:56.152Z,1004.36
2016-12-03T02:23:06.160Z,1004.4
2016-12-03T02:24:16.483Z,1004.42
2016-12-03T02:25:26.812Z,1004.44
2016-12-03T02:26:36.505Z,1004.49
2016-12-03T02:27:46.521Z,1004.51
2016-12-03T02:28:56.832Z,1004.49
2016-12-03T02:30:06.859Z,1004.47
2016-12-03T02:31:17.186Z,1004.47
2016-12-03T02:32:27.197Z,1004.47
2016-12-03T02:33:37.227Z,1004.48
2016-12-03T02:34:47.546Z,1004.53
2016-12-03T02:35:57.259Z,1004.51
2016-12-03T02:37:07.269Z,1004.51
2016-12-03T02:38:17.587Z,1004.48
2016-12-03T02:39:27.612Z,1004.56
2016-12-03T02:40:37.625Z,1004.56
2016-12-03T02:41:47.646Z,1004.56
2016-12-03T02:42:57.663Z,1004.57
2016-12-03T02:44:07.671Z,1004.62
2016-12-03T02:45:17.691Z,1004.59
2016-12-03T02:46:27.698Z,1004.58
2016-12-03T02:47:38.030Z,1004.6
2016-12-03T02:48:48.057Z,1004.61
2016-12-03T02:49:58.378Z,1004.59
2016-12-03T02:51:08.703Z,1004.58
2016-12-03T02:52:18.737Z,1004.64
2016-12-03T02:53:28.444Z,1004.6
2016-12-03T02:54:38.489Z,1004.62
2016-12-03T02:55:48.793Z,1004.65
2016-12-03T02:56:58.797Z,1004.6
2016-12-03T02:58:08.800Z,1004.62
2016-12-03T02:59:18.818Z,1004.64
2016-12-03T03:00:29.148Z,1004.61
2016-12-03T03:01:39.158Z,1004.61
2016-12-03T03:32:55.849Z,1004.59
2016-12-03T03:34:05.537Z,1004.59
2016-12-03T03:35:15.856Z,1004.56
2016-12-03T03:36:25.845Z,1004.61
2016-12-03T03:37:35.541Z,1004.57
2016-12-03T03:38:45.852Z,1004.62
2016-12-03T03:39:56.175Z,1004.58
2016-12-03T03:41:06.483Z,1004.58
2016-12-03T03:42:16.798Z,1004.58
2016-12-03T03:43:27.147Z,1004.54
2016-12-03T03:44:37.183Z,1004.51
2016-12-03T03:45:47.509Z,1004.55
2016-12-03T03:46:57.519Z,1004.5
2016-12-03T03:48:07.526Z,1004.57
2016-12-03T03:49:17.857Z,1004.51
2016-12-03T03:50:27.874Z,1004.53
2016-12-03T03:51:37.925Z,1004.52
2016-12-03T03:52:48.246Z,1004.48
2016-12-03T03:53:58.298Z,1004.51
2016-12-03T03:55:08.651Z,1004.53
2016-12-03T03:56:18.662Z,1004.53
2016-12-03T03:57:28.979Z,1004.55
2016-12-03T03:58:38.695Z,1004.58
2016-12-03T03:59:49.021Z,1004.59
2016-12-03T04:00:59.038Z,1004.58
2016-12-03T04:02:08.749Z,1004.6
2016-12-03T04:03:19.082Z,1004.62
2016-12-03T04:04:29.404Z,1004.6
2016-12-03T04:05:39.723Z,1004.63
2016-12-03T04:06:50.047Z,1004.66
2016-12-03T04:08:00.132Z,1004.65
2016-12-03T04:09:10.454Z,1004.62
2016-12-03T04:10:20.467Z,1004.68
2016-12-03T04:11:30.812Z,1004.68
2016-12-03T04:12:41.149Z,1004.68
2016-12-03T04:13:51.154Z,1004.72
2016-12-03T04:15:01.497Z,1004.72
2016-12-03T04:16:11.830Z,1004.73
2016-12-03T04:17:22.159Z,1004.75
2016-12-03T04:18:32.482Z,1004.73
2016-12-03T04:19:42.490Z,1004.75
2016-12-03T04:20:52.826Z,1004.7
2016-12-03T04:22:02.839Z,1004.7
2016-12-03T04:23:12.862Z,1004.72
2016-12-03T04:24:22.882Z,1004.71
2016-12-03T04:25:33.230Z,1004.7
2016-12-03T04:26:43.243Z,1004.7
2016-12-03T04:27:53.575Z,1004.69
2016-12-03T04:29:03.911Z,1004.71
2016-12-03T04:30:13.923Z,1004.69
2016-12-03T04:31:24.238Z,1004.66
2016-12-03T04:32:33.944Z,1004.66
2016-12-03T04:33:43.961Z,1004.71
2016-12-03T04:34:54.288Z,1004.7
2016-12-03T04:36:04.609Z,1004.74
2016-12-03T04:37:14.636Z,1004.73
2016-12-03T04:38:24.648Z,1004.7
2016-12-03T04:39:34.335Z,1004.75
2016-12-03T04:40:44.357Z,1004.73
2016-12-03T04:41:54.698Z,1004.72
2016-12-03T04:43:05.026Z,1004.77
2016-12-03T04:44:15.357Z,1004.73
2016-12-03T04:45:25.355Z,1004.73
2016-12-03T04:46:35.682Z,1004.74
2016-12-03T04:47:46.023Z,1004.77
2016-12-03T04:48:56.341Z,1004.77
2016-12-03T04:50:06.035Z,1004.76
2016-12-03T04:51:15.759Z,1004.76
2016-12-03T04:52:25.751Z,1004.8
2016-12-03T04:53:35.761Z,1004.75
2016-12-03T04:54:46.095Z,1004.81
2016-12-03T04:55:55.795Z,1004.8
2016-12-03T04:57:05.796Z,1004.82
2016-12-03T04:58:16.134Z,1004.79
2016-12-03T04:59:26.459Z,1004.76
2016-12-03T05:00:36.496Z,1004.79
2016-12-03T05:01:46.514Z,1004.75
2016-12-03T05:02:56.555Z,1004.78
2016-12-03T05:04:06.586Z,1004.79
2016-12-03T05:05:16.917Z,1004.78
2016-12-03T05:06:26.920Z,1004.81
2016-12-03T05:07:36.933Z,1004.83
2016-12-03T05:08:47.258Z,1004.88
2016-12-03T05:09:57.265Z,1004.92
2016-12-03T05:11:07.634Z,1004.9
2016-12-03T05:12:17.657Z,1004.91
2016-12-03T05:13:27.659Z,1004.93
2016-12-03T05:14:37.363Z,1004.93
2016-12-03T05:15:47.687Z,1004.94
2016-12-03T05:16:57.696Z,1004.97
2016-12-03T05:18:08.018Z,1004.93
2016-12-03T05:19:17.415Z,1004.97
2016-12-03T05:20:27.755Z,1004.94
2016-12-03T05:21:37.757Z,1004.95
2016-12-03T05:22:47.770Z,1004.94
2016-12-03T05:23:58.106Z,1004.96
2016-12-03T05:25:07.812Z,1004.94
2016-12-03T05:26:17.809Z,1004.94
2016-12-03T05:27:28.125Z,1004.96
2016-12-03T05:28:38.141Z,1004.98
2016-12-03T05:29:48.464Z,1004.97
2016-12-03T05:30:58.804Z,1004.93
2016-12-03T05:32:09.147Z,1004.96
2016-12-03T05:33:19.481Z,1004.93
2016-12-03T05:34:29.486Z,1004.96
2016-12-03T05:35:39.831Z,1004.98
2016-12-03T05:36:49.845Z,1004.97
2016-12-03T05:38:00.171Z,1004.96
2016-12-03T05:39:10.205Z,1004.94
2016-12-03T05:40:20.229Z,1005.02
2016-12-03T05:41:30.241Z,1005.01
2016-12-03T05:42:40.263Z,1005.04
2016-12-03T05:43:50.588Z,1005.02
2016-12-03T05:45:00.906Z,1005
2016-12-03T05:46:10.933Z,1005.04
2016-12-03T05:47:20.954Z,1005.06
2016-12-03T05:48:31.275Z,1005.03
2016-12-03T05:49:41.288Z,1005.06
2016-12-03T05:50:51.628Z,1005.07
2016-12-03T05:52:01.986Z,1005.05
2016-12-03T05:53:12.317Z,1005.04
2016-12-03T05:54:22.630Z,1005.06
2016-12-03T05:55:32.941Z,1005.05
2016-12-03T05:56:43.278Z,1005.09
2016-12-03T05:57:53.324Z,1005.04
2016-12-03T05:59:03.055Z,1005.04
2016-12-03T06:00:13.072Z,1005.01
2016-12-03T06:01:23.074Z,1005.01
2016-12-03T06:02:33.084Z,1005.02
2016-12-03T06:03:43.414Z,1004.99
2016-12-03T06:04:53.431Z,1005
2016-12-03T06:06:03.450Z,1005.06
2016-12-03T06:07:13.150Z,1005.02
2016-12-03T06:08:23.164Z,1005.04
2016-12-03T06:09:33.194Z,1005.07
2016-12-03T06:10:43.743Z,1005.08
2016-12-03T06:11:53.443Z,1005.07
2016-12-03T06:13:03.761Z,1005.08
2016-12-03T06:14:14.089Z,1005.12
2016-12-03T06:15:24.110Z,1005.12
2016-12-03T06:16:33.827Z,1005.11
2016-12-03T06:17:44.138Z,1005.11
2016-12-03T06:18:54.490Z,1005.08
2016-12-03T06:20:04.817Z,1005.07
2016-12-03T06:21:15.150Z,1005.12
2016-12-03T06:22:25.181Z,1005.1
2016-12-03T06:23:35.207Z,1005.12
2016-12-03T06:24:45.533Z,1005.17
2016-12-03T06:25:55.856Z,1005.16
2016-12-03T06:27:06.182Z,1005.17
2016-12-03T06:28:16.203Z,1005.2
2016-12-03T06:29:26.530Z,1005.17
2016-12-03T06:30:36.547Z,1005.21
2016-12-03T06:31:46.284Z,1005.25
2016-12-03T06:32:56.311Z,1005.27
2016-12-03T06:34:06.328Z,1005.26
2016-12-03T06:35:16.330Z,1005.29
2016-12-03T06:36:26.661Z,1005.3
2016-12-03T06:37:36.689Z,1005.29
2016-12-03T06:38:46.714Z,1005.32
2016-12-03T06:39:56.436Z,1005.36
2016-12-03T06:41:06.459Z,1005.32
2016-12-03T06:42:16.799Z,1005.37
2016-12-03T06:43:26.821Z,1005.37
2016-12-03T06:44:37.133Z,1005.37
2016-12-03T06:45:47.460Z,1005.42
2016-12-03T06:46:57.487Z,1005.41
2016-12-03T06:48:07.818Z,1005.4
2016-12-03T06:49:18.146Z,1005.45
2016-12-03T06:50:28.464Z,1005.46
2016-12-03T06:51:38.164Z,1005.47
2016-12-03T06:52:48.501Z,1005.5
2016-12-03T06:53:58.528Z,1005.51
2016-12-03T06:55:08.524Z,1005.55
2016-12-03T06:56:18.218Z,1005.57
2016-12-03T06:57:28.244Z,1005.62
2016-12-03T06:58:38.255Z,1005.58
2016-12-03T06:59:48.587Z,1005.59
2016-12-03T07:00:57.673Z,1005.58
2016-12-03T07:02:07.372Z,1005.62
2016-12-03T07:03:17.377Z,1005.59
2016-12-03T07:04:27.399Z,1005.62
2016-12-03T07:05:37.409Z,1005.63
2016-12-03T07:06:47.723Z,1005.6
2016-12-03T07:07:58.051Z,1005.64
2016-12-03T07:09:08.076Z,1005.63
2016-12-03T07:10:17.784Z,1005.64
2016-12-03T07:11:27.787Z,1005.69
2016-12-03T07:12:37.806Z,1005.65
2016-12-03T07:13:47.530Z,1005.7
2016-12-03T07:14:57.551Z,1005.7
2016-12-03T07:16:07.929Z,1005.76
2016-12-03T07:17:18.253Z,1005.75
2016-12-03T07:18:28.590Z,1005.78
2016-12-03T07:19:38.602Z,1005.78
2016-12-03T07:20:48.931Z,1005.76
2016-12-03T07:21:59.296Z,1005.77
2016-12-03T07:23:09.614Z,1005.76
2016-12-03T07:24:19.634Z,1005.81
2016-12-03T07:25:29.946Z,1005.81
2016-12-03T07:26:40.277Z,1005.83
2016-12-03T07:27:50.602Z,1005.88
2016-12-03T07:29:00.622Z,1005.91
2016-12-03T07:30:10.944Z,1005.93
2016-12-03T07:31:20.979Z,1005.95
2016-12-03T07:32:31.317Z,1005.94
2016-12-03T07:33:41.640Z,1005.97
2016-12-03T07:34:51.958Z,1005.97
2016-12-03T07:36:02.308Z,1005.94
2016-12-03T07:37:11.711Z,1005.99
2016-12-03T07:38:22.027Z,1005.93
2016-12-03T07:39:32.370Z,1005.95
2016-12-03T07:40:42.392Z,1005.97
2016-12-03T07:41:52.716Z,1005.95
2016-12-03T07:43:02.734Z,1006.02
2016-12-03T07:44:13.065Z,1006
2016-12-03T07:45:23.409Z,1006.01
2016-12-03T07:46:33.433Z,1006.01
2016-12-03T07:47:43.472Z,1006.04
2016-12-03T07:48:53.789Z,1006.02
2016-12-03T07:50:04.125Z,1006.1
2016-12-03T07:51:13.838Z,1006.11
2016-12-03T07:52:23.863Z,1006.14
2016-12-03T07:53:34.194Z,1006.13
2016-12-03T07:54:44.207Z,1006.17
2016-12-03T07:55:54.533Z,1006.23
2016-12-03T07:57:04.870Z,1006.24
2016-12-03T07:58:15.202Z,1006.26
2016-12-03T07:59:25.535Z,1006.32
2016-12-03T08:00:35.861Z,1006.34
2016-12-03T08:01:45.882Z,1006.35
2016-12-03T08:02:56.198Z,1006.42
2016-12-03T08:04:06.520Z,1006.4
2016-12-03T08:05:16.537Z,1006.37
2016-12-03T08:06:26.863Z,1006.34
2016-12-03T08:07:36.869Z,1006.35
2016-12-03T08:08:46.887Z,1006.39
2016-12-03T08:09:56.928Z,1006.41
2016-12-03T08:11:07.261Z,1006.41
2016-12-03T08:12:17.597Z,1006.4
2016-12-03T08:13:27.625Z,1006.43
2016-12-03T08:14:37.852Z,1006.44
2016-12-03T08:15:48.743Z,1006.47
2016-12-03T08:16:59.089Z,1006.48
2016-12-03T08:18:08.873Z,1006.56
2016-12-03T08:19:19.251Z,1006.57
2016-12-03T08:20:29.693Z,1006.51
2016-12-03T08:21:39.828Z,1006.55
2016-12-03T08:22:50.216Z,1006.55
2016-12-03T08:24:00.361Z,1006.53
2016-12-03T08:25:10.457Z,1006.56
2016-12-03T08:26:20.184Z,1006.6
2016-12-03T08:27:29.901Z,1006.62
2016-12-03T08:28:39.913Z,1006.61
2016-12-03T08:29:49.956Z,1006.6
2016-12-03T08:30:59.963Z,1006.62
2016-12-03T08:32:09.985Z,1006.68
2016-12-03T08:33:20.094Z,1006.7
2016-12-03T08:34:30.515Z,1006.72
2016-12-03T08:35:40.707Z,1006.75
2016-12-03T08:36:50.796Z,1006.71
2016-12-03T08:38:00.568Z,1006.74
2016-12-03T08:39:10.943Z,1006.78
2016-12-03T08:40:21.405Z,1006.79
2016-12-03T08:41:31.785Z,1006.82
2016-12-03T08:42:41.262Z,1006.82
2016-12-03T08:43:51.464Z,1006.78
2016-12-03T08:45:01.567Z,1006.83
2016-12-03T08:46:11.630Z,1006.93
2016-12-03T08:47:21.600Z,1006.89
2016-12-03T08:48:31.728Z,1006.92
2016-12-03T08:49:41.786Z,1006.89
2016-12-03T08:50:51.950Z,1006.91
2016-12-03T08:52:02.305Z,1006.96
2016-12-03T08:53:12.372Z,1006.97
2016-12-03T08:54:22.417Z,1006.92
2016-12-03T08:55:32.775Z,1006.99
2016-12-03T08:56:43.124Z,1007
2016-12-03T08:57:53.559Z,1007.04
2016-12-03T08:59:03.271Z,1007.04
2016-12-03T09:00:13.579Z,1007.1
2016-12-03T09:01:23.901Z,1007.08
2016-12-03T09:02:34.222Z,1007.08
2016-12-03T09:03:44.552Z,1007.15
2016-12-03T09:04:54.886Z,1007.12
2016-12-03T09:06:04.957Z,1007.2
2016-12-03T09:07:15.283Z,1007.15
2016-12-03T09:08:25.290Z,1007.12
2016-12-03T09:09:35.018Z,1007.18
2016-12-03T09:10:45.043Z,1007.22
2016-12-03T09:11:55.400Z,1007.2
2016-12-03T09:13:05.717Z,1007.21
2016-12-03T09:14:15.741Z,1007.21
2016-12-03T09:15:26.078Z,1007.17
2016-12-03T09:16:36.404Z,1007.2
2016-12-03T09:17:46.432Z,1007.2
2016-12-03T09:18:56.450Z,1007.28
2016-12-03T09:20:06.797Z,1007.24
2016-12-03T09:21:16.810Z,1007.26
2016-12-03T09:22:26.530Z,1007.27
2016-12-03T09:23:36.888Z,1007.27
2016-12-03T09:24:46.594Z,1007.27
2016-12-03T09:25:56.624Z,1007.29
2016-12-03T09:27:06.335Z,1007.28
2016-12-03T09:28:16.354Z,1007.29
2016-12-03T09:29:26.380Z,1007.32
2016-12-03T09:30:36.705Z,1007.33
2016-12-03T09:31:46.757Z,1007.34
2016-12-03T09:32:57.092Z,1007.38
2016-12-03T09:34:07.452Z,1007.38
2016-12-03T09:35:17.484Z,1007.33
2016-12-03T09:36:27.795Z,1007.33
2016-12-03T09:37:38.187Z,1007.35
2016-12-03T09:38:48.224Z,1007.36
2016-12-03T09:39:58.562Z,1007.31
2016-12-03T09:41:08.895Z,1007.32
2016-12-03T09:42:18.623Z,1007.32
2016-12-03T09:43:28.941Z,1007.33
2016-12-03T09:44:38.972Z,1007.3
2016-12-03T09:45:48.999Z,1007.33
2016-12-03T09:46:59.319Z,1007.34
2016-12-03T09:48:09.346Z,1007.3
2016-12-03T09:49:19.378Z,1007.35
2016-12-03T09:50:29.408Z,1007.32
2016-12-03T09:51:39.762Z,1007.39
2016-12-03T09:52:50.087Z,1007.35
2016-12-03T09:54:00.122Z,1007.35
2016-12-03T09:55:10.477Z,1007.37
2016-12-03T09:56:20.791Z,1007.4
2016-12-03T09:57:30.501Z,1007.36
2016-12-03T09:58:40.841Z,1007.33
2016-12-03T09:59:51.165Z,1007.35
2016-12-03T10:01:01.490Z,1007.38
2016-12-03T10:02:11.532Z,1007.35
2016-12-03T10:03:21.553Z,1007.31
2016-12-03T10:04:31.894Z,1007.35
2016-12-03T10:05:41.617Z,1007.28
2016-12-03T10:06:51.630Z,1007.32
2016-12-03T10:08:01.660Z,1007.3
2016-12-03T10:09:11.377Z,1007.3
2016-12-03T10:10:21.385Z,1007.24
2016-12-03T10:11:31.402Z,1007.27
2016-12-03T10:12:41.722Z,1007.23
2016-12-03T10:13:52.057Z,1007.25
2016-12-03T10:15:02.114Z,1007.28
2016-12-03T10:16:12.461Z,1007.25
2016-12-03T10:17:22.187Z,1007.3
2016-12-03T10:18:32.524Z,1007.27
2016-12-03T10:19:42.846Z,1007.31
2016-12-03T10:20:53.206Z,1007.3
2016-12-03T10:22:02.909Z,1007.29
2016-12-03T10:23:13.236Z,1007.26
2016-12-03T10:24:23.574Z,1007.25
2016-12-03T10:25:33.937Z,1007.24
2016-12-03T10:26:44.269Z,1007.25
2016-12-03T10:27:54.608Z,1007.26
2016-12-03T10:29:04.632Z,1007.26
2016-12-03T10:30:14.975Z,1007.26
2016-12-03T10:31:25.308Z,1007.31
2016-12-03T10:32:35.327Z,1007.23
2016-12-03T10:33:45.655Z,1007.24
2016-12-03T10:34:55.690Z,1007.14
2016-12-03T10:36:06.026Z,1007.23
2016-12-03T10:37:16.361Z,1007.19
2016-12-03T10:38:26.062Z,1007.17
2016-12-03T10:39:36.397Z,1007.19
2016-12-03T10:40:46.732Z,1007.19
2016-12-03T10:41:56.740Z,1007.14
2016-12-03T10:43:07.081Z,1007.17
2016-12-03T10:44:17.434Z,1007.16
2016-12-03T10:45:27.770Z,1007.15
2016-12-03T10:46:38.101Z,1007.13
2016-12-03T10:47:48.111Z,1007.14
2016-12-03T10:48:58.144Z,1007.16
2016-12-03T10:50:08.473Z,1007.15
2016-12-03T10:51:18.792Z,1007.21
2016-12-03T10:52:28.803Z,1007.18
2016-12-03T10:53:38.825Z,1007.23
2016-12-03T10:54:48.542Z,1007.2
2016-12-03T10:55:58.564Z,1007.22
2016-12-03T10:57:08.900Z,1007.14
2016-12-03T10:58:19.247Z,1007.14
2016-12-03T10:59:29.258Z,1007.24
2016-12-03T11:00:38.970Z,1007.18
2016-12-03T11:01:48.991Z,1007.14
2016-12-03T11:02:59.002Z,1007.16
2016-12-03T11:04:09.353Z,1007.18
2016-12-03T11:05:19.713Z,1007.15
2016-12-03T11:06:30.076Z,1007.23
2016-12-03T11:07:40.098Z,1007.16
2016-12-03T11:08:50.130Z,1007.17
2016-12-03T11:10:00.468Z,1007.16
2016-12-03T11:11:10.500Z,1007.18
2016-12-03T11:12:20.212Z,1007.16
2016-12-03T11:13:30.551Z,1007.22
2016-12-03T11:14:39.950Z,1007.14
2016-12-03T11:15:50.301Z,1007.17
2016-12-03T11:17:00.327Z,1007.2
2016-12-03T11:18:10.648Z,1007.14
2016-12-03T11:19:20.976Z,1007.15
2016-12-03T11:20:31.296Z,1007.17
2016-12-03T11:21:41.315Z,1007.1
2016-12-03T11:22:51.022Z,1007.14
2016-12-03T11:24:00.726Z,1007.08
2016-12-03T11:25:11.048Z,1007.09
2016-12-03T11:26:21.381Z,1007.09
2016-12-03T11:27:31.707Z,1007.11
2016-12-03T11:28:42.043Z,1007.09
2016-12-03T11:29:52.061Z,1007.12
2016-12-03T11:31:02.417Z,1007.15
2016-12-03T11:32:12.742Z,1007.12
2016-12-03T11:33:22.776Z,1007.1
2016-12-03T11:34:32.797Z,1007.09
2016-12-03T11:35:42.495Z,1007.1
2016-12-03T11:36:52.820Z,1007.09
2016-12-03T11:38:02.848Z,1007.06
2016-12-03T11:39:12.869Z,1007.07
2016-12-03T11:40:22.872Z,1007.05
2016-12-03T11:41:33.228Z,1007.02
2016-12-03T11:42:43.235Z,1007.09
2016-12-03T11:43:53.278Z,1007.09
2016-12-03T11:45:03.659Z,1007.08
2016-12-03T11:46:13.378Z,1007.08
2016-12-03T11:47:23.383Z,1007.07
2016-12-03T11:48:33.074Z,1007.08
2016-12-03T11:49:43.095Z,1007.08
2016-12-03T11:50:53.136Z,1007.01
2016-12-03T11:52:03.153Z,1007.07
2016-12-03T11:53:13.509Z,1007.07
2016-12-03T11:54:23.521Z,1007.06
2016-12-03T11:55:33.539Z,1007.04
2016-12-03T11:56:43.894Z,1007.05
2016-12-03T11:57:53.910Z,1007.02
2016-12-03T11:59:03.312Z,1007.04
2016-12-03T12:00:13.653Z,1007.05
2016-12-03T12:01:23.658Z,1007
2016-12-03T12:02:33.690Z,1007.01
2016-12-03T12:03:43.390Z,1007.01
2016-12-03T12:04:53.407Z,1006.98
2016-12-03T12:06:03.734Z,1007.02
2016-12-03T12:07:13.745Z,1006.98
2016-12-03T12:08:23.824Z,1007.01
2016-12-03T12:09:34.152Z,1007
2016-12-03T12:10:43.861Z,1007.04
2016-12-03T12:11:54.192Z,1007.04
2016-12-03T12:13:04.272Z,1007.1
2016-12-03T12:14:14.601Z,1007.12
2016-12-03T12:15:24.621Z,1007.15
2016-12-03T12:16:34.940Z,1007.08
2016-12-03T12:17:44.656Z,1007.08
2016-12-03T12:18:54.734Z,1007.05
2016-12-03T12:20:04.455Z,1007.09
2016-12-03T12:21:13.863Z,1007.04
2016-12-03T12:22:23.885Z,1007.07
2016-12-03T12:23:34.224Z,1007.09
2016-12-03T12:24:44.585Z,1007.12
2016-12-03T12:25:53.655Z,1007.13
2016-12-03T12:27:03.681Z,1007.2
2016-12-03T12:28:13.428Z,1007.15
2016-12-03T12:29:23.449Z,1007.17
2016-12-03T12:30:33.476Z,1007.11
2016-12-03T12:31:43.823Z,1007.13
2016-12-03T12:32:53.835Z,1007.12
2016-12-03T12:34:03.864Z,1007.16
2016-12-03T12:35:13.889Z,1007.11
2016-12-03T12:36:24.216Z,1007.14
2016-12-03T12:37:33.939Z,1007.11
2016-12-03T12:38:43.967Z,1007.1
2016-12-03T12:39:53.691Z,1007.1
2016-12-03T12:41:03.734Z,1007.1
2016-12-03T12:42:14.079Z,1007.08
2016-12-03T12:43:24.441Z,1007.15
2016-12-03T12:44:34.170Z,1007.13
2016-12-03T12:45:44.209Z,1007.09
2016-12-03T12:46:54.249Z,1007.08
2016-12-03T12:48:04.292Z,1007.08
2016-12-03T12:49:14.646Z,1007.03
2016-12-03T12:50:24.705Z,1007.1
2016-12-03T12:51:35.063Z,1007.03
2016-12-03T12:52:45.409Z,1007.05
2016-12-03T12:53:55.421Z,1006.99
2016-12-03T12:55:05.762Z,1006.98
2016-12-03T12:56:15.483Z,1007.04
2016-12-03T12:57:25.527Z,1007.1
2016-12-03T12:58:35.538Z,1007.11
2016-12-03T12:59:45.558Z,1007.11
2016-12-03T13:00:55.886Z,1007.09
2016-12-03T13:02:05.918Z,1007.06
2016-12-03T13:03:15.628Z,1007.06
2016-12-03T13:04:25.025Z,1007.12
2016-12-03T13:05:35.076Z,1007.17
2016-12-03T13:06:45.085Z,1007.14
2016-12-03T13:07:55.112Z,1007.15
2016-12-03T13:09:05.142Z,1007.17
2016-12-03T13:10:15.179Z,1007.14
2016-12-03T13:11:25.504Z,1007.13
2016-12-03T13:12:35.210Z,1007.16
2016-12-03T13:13:44.929Z,1007.18
2016-12-03T13:14:55.275Z,1007.15
2016-12-03T13:16:05.299Z,1007.18
2016-12-03T13:17:15.333Z,1007.18
2016-12-03T13:18:25.043Z,1007.18
2016-12-03T13:19:35.382Z,1007.2
2016-12-03T13:20:45.406Z,1007.25
2016-12-03T13:21:55.419Z,1007.15
2016-12-03T13:23:05.432Z,1007.22
2016-12-03T13:24:15.451Z,1007.22
2016-12-03T13:25:25.468Z,1007.22
2016-12-03T13:26:35.478Z,1007.25
2016-12-03T13:27:45.552Z,1007.26
2016-12-03T13:28:55.895Z,1007.23
2016-12-03T13:30:06.224Z,1007.3
2016-12-03T13:31:16.251Z,1007.31
2016-12-03T13:32:26.593Z,1007.35
2016-12-03T13:33:36.609Z,1007.36
2016-12-03T13:34:46.654Z,1007.34
2016-12-03T13:35:56.670Z,1007.37
2016-12-03T13:37:07.009Z,1007.37
2016-12-03T13:38:17.328Z,1007.33
2016-12-03T13:39:27.039Z,1007.36
2016-12-03T13:40:37.295Z,1007.34
2016-12-03T13:41:47.625Z,1007.37
2016-12-03T13:42:57.643Z,1007.33
2016-12-03T13:44:07.658Z,1007.39
2016-12-03T13:45:17.995Z,1007.4
2016-12-03T13:46:28.031Z,1007.39
2016-12-03T13:47:38.376Z,1007.41
2016-12-03T13:48:48.702Z,1007.41
2016-12-03T13:49:58.405Z,1007.42
2016-12-03T13:51:08.763Z,1007.41
2016-12-03T13:52:18.479Z,1007.45
2016-12-03T13:53:28.800Z,1007.45
2016-12-03T13:54:39.137Z,1007.47
2016-12-03T13:55:49.169Z,1007.44
2016-12-03T13:56:59.196Z,1007.4
2016-12-03T13:58:09.534Z,1007.43
2016-12-03T13:59:19.223Z,1007.4
2016-12-03T14:00:29.251Z,1007.38
2016-12-03T14:01:39.607Z,1007.39
2016-12-03T14:02:49.934Z,1007.38
2016-12-03T14:04:00.285Z,1007.37
2016-12-03T14:05:10.620Z,1007.41
2016-12-03T14:06:20.972Z,1007.42
2016-12-03T14:07:30.995Z,1007.4
2016-12-03T14:08:40.412Z,1007.4
2016-12-03T14:09:50.114Z,1007.36
2016-12-03T14:11:00.125Z,1007.31
2016-12-03T14:12:10.455Z,1007.35
2016-12-03T14:13:20.794Z,1007.41
2016-12-03T14:14:31.111Z,1007.38
2016-12-03T14:15:41.132Z,1007.39
2016-12-03T14:16:50.524Z,1007.4
2016-12-03T14:18:00.542Z,1007.43
2016-12-03T14:19:10.860Z,1007.42
2016-12-03T14:20:20.885Z,1007.43
2016-12-03T14:21:30.891Z,1007.41
2016-12-03T14:22:41.216Z,1007.44
2016-12-03T14:23:51.535Z,1007.47
2016-12-03T14:25:01.874Z,1007.45
2016-12-03T14:26:12.207Z,1007.48
2016-12-03T14:27:21.600Z,1007.52
2016-12-03T14:28:31.955Z,1007.54
2016-12-03T14:29:42.294Z,1007.53
2016-12-03T14:30:52.612Z,1007.5
2016-12-03T14:32:02.653Z,1007.53
2016-12-03T14:33:12.050Z,1007.53
2016-12-03T14:34:22.373Z,1007.53
2016-12-03T14:35:32.385Z,1007.51
2016-12-03T14:36:42.406Z,1007.52
2016-12-03T14:37:52.743Z,1007.53
2016-12-03T14:39:02.791Z,1007.53
2016-12-03T14:40:13.156Z,1007.52
2016-12-03T14:41:23.503Z,1007.48